createdAt,value
2017-04-02T00:00:02.662Z,66.56
2017-04-02T00:00:06.977Z,66.76
2017-04-02T00:00:11.167Z,66.47
2017-04-02T00:00:15.594Z,66.56
2017-04-02T00:00:19.910Z,66.85
2017-04-02T00:00:24.372Z,66.56
2017-04-02T00:00:28.678Z,66.66
2017-04-02T00:00:33.106Z,66.56
2017-04-02T00:00:37.576Z,66.66
2017-04-02T00:00:42.006Z,66.56
2017-04-02T00:00:46.437Z,66.76
2017-04-02T00:00:50.866Z,66.56
2017-04-02T00:00:55.293Z,66.47
2017-04-02T00:00:59.760Z,66.85
2017-04-02T00:01:04.184Z,66.76
2017-04-02T00:01:08.606Z,66.47
2017-04-02T00:01:13.036Z,66.47
2017-04-02T00:01:17.345Z,66.76
2017-04-02T00:01:21.770Z,66.85
2017-04-02T00:01:26.195Z,66.76
2017-04-02T00:01:30.506Z,67.14
2017-04-02T00:01:34.935Z,67.14
2017-04-02T00:01:39.358Z,66.85
2017-04-02T00:01:43.673Z,67.05
2017-04-02T00:01:48.100Z,66.95
2017-04-02T00:01:52.524Z,66.95
2017-04-02T00:01:56.828Z,66.95
2017-04-02T00:02:01.258Z,66.95
2017-04-02T00:02:05.938Z,67.05
2017-04-02T00:02:10.364Z,67.33
2017-04-02T00:02:14.791Z,67.14
2017-04-02T00:02:19.102Z,66.95
2017-04-02T00:02:23.522Z,67.14
2017-04-02T00:02:27.829Z,67.05
2017-04-02T00:02:32.257Z,67.21
2017-04-02T00:02:36.682Z,67.33
2017-04-02T00:02:41.110Z,66.95
2017-04-02T00:02:45.414Z,67.52
2017-04-02T00:02:49.843Z,67.24
2017-04-02T00:02:54.149Z,67.14
2017-04-02T00:02:58.458Z,67.24
2017-04-02T00:03:02.895Z,67.24
2017-04-02T00:03:07.208Z,66.92
2017-04-02T00:03:11.630Z,67.24
2017-04-02T00:03:16.058Z,67.24
2017-04-02T00:03:20.483Z,67.11
2017-04-02T00:03:24.801Z,67.14
2017-04-02T00:03:29.226Z,67.21
2017-04-02T00:03:33.663Z,67.14
2017-04-02T00:03:38.083Z,67.05
2017-04-02T00:03:42.510Z,67.24
2017-04-02T00:03:46.816Z,66.95
2017-04-02T00:03:51.013Z,67.52
2017-04-02T00:03:55.440Z,67.43
2017-04-02T00:03:59.874Z,67.52
2017-04-02T00:04:04.435Z,67.33
2017-04-02T00:04:08.857Z,67.24
2017-04-02T00:04:13.286Z,67.24
2017-04-02T00:04:17.712Z,67.68
2017-04-02T00:04:22.140Z,67.71
2017-04-02T00:04:26.445Z,67.62
2017-04-02T00:04:30.868Z,67.33
2017-04-02T00:04:35.295Z,67.21
2017-04-02T00:04:39.766Z,67.43
2017-04-02T00:04:44.189Z,67.33
2017-04-02T00:04:48.619Z,67.91
2017-04-02T00:04:52.969Z,67.21
2017-04-02T00:04:57.162Z,67.11
2017-04-02T00:05:01.589Z,67.4
2017-04-02T00:05:06.024Z,67.43
2017-04-02T00:05:10.377Z,67.4
2017-04-02T00:05:14.808Z,67.43
2017-04-02T00:05:19.002Z,67.21
2017-04-02T00:05:23.314Z,67.68
2017-04-02T00:05:27.763Z,67.68
2017-04-02T00:05:32.196Z,67.4
2017-04-02T00:05:36.400Z,67.58
2017-04-02T00:05:40.831Z,67.58
2017-04-02T00:05:45.031Z,67.81
2017-04-02T00:05:49.462Z,67.4
2017-04-02T00:05:53.773Z,67.4
2017-04-02T00:05:58.198Z,67.62
2017-04-02T00:06:02.636Z,67.58
2017-04-02T00:06:06.955Z,67.43
2017-04-02T00:06:11.384Z,67.43
2017-04-02T00:06:15.692Z,67.4
2017-04-02T00:06:20.051Z,67.58
2017-04-02T00:06:24.019Z,67.58
2017-04-02T00:06:28.344Z,67.52
2017-04-02T00:06:32.657Z,67.4
2017-04-02T00:06:36.972Z,67.3
2017-04-02T00:06:41.291Z,67.3
2017-04-02T00:06:45.737Z,67.49
2017-04-02T00:06:50.201Z,67.49
2017-04-02T00:06:54.282Z,67.4
2017-04-02T00:06:58.360Z,67.49
2017-04-02T00:07:02.556Z,67.77
2017-04-02T00:07:06.886Z,67.68
2017-04-02T00:07:11.198Z,67.4
2017-04-02T00:07:15.630Z,67.4
2017-04-02T00:07:20.076Z,67.58
2017-04-02T00:07:24.393Z,67.58
2017-04-02T00:07:28.820Z,67.4
2017-04-02T00:07:33.130Z,67.49
2017-04-02T00:07:37.478Z,67.58
2017-04-02T00:07:41.914Z,67.58
2017-04-02T00:07:46.353Z,67.68
2017-04-02T00:07:50.550Z,67.4
2017-04-02T00:07:54.865Z,67.58
2017-04-02T00:07:59.309Z,67.4
2017-04-02T00:08:04.039Z,67.4
2017-04-02T00:08:08.367Z,68.06
2017-04-02T00:08:12.572Z,68.06
2017-04-02T00:08:17.003Z,68.35
2017-04-02T00:08:21.086Z,67.97
2017-04-02T00:08:25.561Z,68.35
2017-04-02T00:08:29.882Z,68.06
2017-04-02T00:08:34.306Z,68.06
2017-04-02T00:08:38.738Z,67.87
2017-04-02T00:08:43.171Z,67.97
2017-04-02T00:08:47.600Z,68.06
2017-04-02T00:08:52.031Z,67.97
2017-04-02T00:08:56.340Z,68.16
2017-04-02T00:09:00.665Z,68.26
2017-04-02T00:09:04.862Z,68.16
2017-04-02T00:09:09.294Z,67.97
2017-04-02T00:09:13.716Z,67.97
2017-04-02T00:09:17.926Z,68.06
2017-04-02T00:09:22.245Z,67.97
2017-04-02T00:09:26.441Z,68.06
2017-04-02T00:09:30.880Z,67.97
2017-04-02T00:09:35.072Z,67.97
2017-04-02T00:09:39.379Z,68.35
2017-04-02T00:09:47.855Z,68.16
2017-04-02T00:09:52.180Z,68.35
2017-04-02T00:09:56.497Z,67.49
2017-04-02T00:10:00.822Z,67.58
2017-04-02T00:10:05.240Z,67.58
2017-04-02T00:10:09.432Z,67.68
2017-04-02T00:10:13.627Z,68.35
2017-04-02T00:10:17.830Z,68.16
2017-04-02T00:10:22.144Z,67.97
2017-04-02T00:10:26.590Z,68.63
2017-04-02T00:10:31.015Z,68.06
2017-04-02T00:10:35.443Z,68.16
2017-04-02T00:10:39.813Z,67.87
2017-04-02T00:10:44.118Z,68.06
2017-04-02T00:10:48.562Z,67.97
2017-04-02T00:10:53.005Z,68.35
2017-04-02T00:10:57.428Z,68.16
2017-04-02T00:11:02.156Z,68.16
2017-04-02T00:11:06.468Z,68.06
2017-04-02T00:11:10.665Z,68.06
2017-04-02T00:11:14.972Z,67.97
2017-04-02T00:11:19.400Z,68.06
2017-04-02T00:11:23.706Z,67.97
2017-04-02T00:11:28.021Z,68.06
2017-04-02T00:11:32.326Z,67.97
2017-04-02T00:11:36.636Z,68.16
2017-04-02T00:11:40.995Z,68.35
2017-04-02T00:11:45.421Z,68.16
2017-04-02T00:11:49.846Z,68.54
2017-04-02T00:11:54.203Z,68.54
2017-04-02T00:11:58.637Z,68.35
2017-04-02T00:12:03.211Z,68.44
2017-04-02T00:12:07.525Z,68.54
2017-04-02T00:12:11.830Z,68.73
2017-04-02T00:12:16.250Z,68.16
2017-04-02T00:12:20.674Z,68.54
2017-04-02T00:12:25.151Z,68.44
2017-04-02T00:12:29.580Z,68.16
2017-04-02T00:12:33.890Z,68.35
2017-04-02T00:12:38.202Z,68.35
2017-04-02T00:12:42.638Z,68.35
2017-04-02T00:12:47.061Z,68.54
2017-04-02T00:12:51.367Z,68.63
2017-04-02T00:12:55.680Z,68.54
2017-04-02T00:13:00.104Z,68.54
2017-04-02T00:13:04.885Z,68.54
2017-04-02T00:13:09.189Z,68.54
2017-04-02T00:13:13.614Z,68.63
2017-04-02T00:13:18.039Z,68.44
2017-04-02T00:13:22.462Z,68.35
2017-04-02T00:13:26.886Z,68.63
2017-04-02T00:13:31.314Z,68.54
2017-04-02T00:13:35.625Z,68.54
2017-04-02T00:13:40.044Z,69.11
2017-04-02T00:13:44.471Z,68.92
2017-04-02T00:13:48.545Z,68.54
2017-04-02T00:13:52.734Z,68.73
2017-04-02T00:13:56.925Z,68.54
2017-04-02T00:14:01.351Z,68.54
2017-04-02T00:14:06.075Z,68.73
2017-04-02T00:14:10.497Z,68.73
2017-04-02T00:14:14.929Z,68.73
2017-04-02T00:14:19.267Z,68.92
2017-04-02T00:14:23.570Z,68.63
2017-04-02T00:14:28.014Z,68.35
2017-04-02T00:14:32.442Z,68.92
2017-04-02T00:14:36.893Z,68.63
2017-04-02T00:14:41.198Z,68.73
2017-04-02T00:14:45.623Z,68.73
2017-04-02T00:14:50.064Z,68.82
2017-04-02T00:14:54.486Z,68.54
2017-04-02T00:14:58.917Z,68.82
2017-04-02T00:15:03.394Z,68.54
2017-04-02T00:15:07.821Z,68.73
2017-04-02T00:15:12.251Z,68.54
2017-04-02T00:15:16.676Z,68.92
2017-04-02T00:15:21.105Z,68.92
2017-04-02T00:15:25.543Z,69.08
2017-04-02T00:15:29.966Z,68.92
2017-04-02T00:15:34.392Z,68.88
2017-04-02T00:15:38.703Z,68.88
2017-04-02T00:15:43.131Z,69.02
2017-04-02T00:15:47.563Z,68.92
2017-04-02T00:15:51.763Z,68.82
2017-04-02T00:15:56.191Z,69.11
2017-04-02T00:16:00.618Z,68.82
2017-04-02T00:16:05.294Z,68.88
2017-04-02T00:16:09.752Z,68.98
2017-04-02T00:16:14.178Z,68.98
2017-04-02T00:16:18.483Z,68.98
2017-04-02T00:16:22.916Z,69.56
2017-04-02T00:16:27.223Z,69.31
2017-04-02T00:16:31.644Z,69.17
2017-04-02T00:16:35.956Z,69.17
2017-04-02T00:16:40.142Z,69.27
2017-04-02T00:16:44.466Z,69.08
2017-04-02T00:16:48.891Z,69.37
2017-04-02T00:16:53.203Z,69.27
2017-04-02T00:16:57.525Z,68.88
2017-04-02T00:17:01.836Z,69.46
2017-04-02T00:17:06.145Z,69.17
2017-04-02T00:17:10.475Z,69.56
2017-04-02T00:17:14.903Z,69.74
2017-04-02T00:17:19.329Z,69.65
2017-04-02T00:17:23.629Z,69.37
2017-04-02T00:17:27.937Z,69.56
2017-04-02T00:17:32.371Z,69.56
2017-04-02T00:17:36.796Z,69.56
2017-04-02T00:17:41.216Z,69.56
2017-04-02T00:17:45.635Z,69.27
2017-04-02T00:17:50.066Z,69.27
2017-04-02T00:17:54.376Z,69.46
2017-04-02T00:17:58.805Z,69.65
2017-04-02T00:18:03.231Z,69.65
2017-04-02T00:18:07.705Z,69.56
2017-04-02T00:18:12.014Z,69.56
2017-04-02T00:18:16.317Z,70.03
2017-04-02T00:18:20.774Z,70.03
2017-04-02T00:18:25.470Z,70.13
2017-04-02T00:18:29.892Z,69.84
2017-04-02T00:18:34.314Z,69.84
2017-04-02T00:18:38.743Z,69.93
2017-04-02T00:18:43.167Z,69.84
2017-04-02T00:18:47.587Z,70.22
2017-04-02T00:18:51.896Z,69.84
2017-04-02T00:18:56.249Z,70.03
2017-04-02T00:19:00.670Z,70.13
2017-04-02T00:19:05.230Z,70.13
2017-04-02T00:19:09.657Z,70.03
2017-04-02T00:19:14.084Z,70.61
2017-04-02T00:19:18.507Z,70.22
2017-04-02T00:19:22.932Z,70.61
2017-04-02T00:19:27.351Z,70.03
2017-04-02T00:19:31.781Z,70.13
2017-04-02T00:19:36.085Z,70.13
2017-04-02T00:19:40.513Z,70.22
2017-04-02T00:19:44.942Z,70.7
2017-04-02T00:19:49.380Z,70.03
2017-04-02T00:19:53.805Z,70.13
2017-04-02T00:19:58.230Z,70.61
2017-04-02T00:20:02.659Z,70.22
2017-04-02T00:20:07.085Z,70.13
2017-04-02T00:20:11.401Z,70.13
2017-04-02T00:20:15.709Z,70.32
2017-04-02T00:20:20.129Z,70.13
2017-04-02T00:20:24.438Z,70.13
2017-04-02T00:20:28.869Z,70.13
2017-04-02T00:20:33.298Z,70.32
2017-04-02T00:20:37.612Z,70.13
2017-04-02T00:20:41.918Z,70.03
2017-04-02T00:20:46.347Z,70.32
2017-04-02T00:20:50.771Z,70.32
2017-04-02T00:20:55.193Z,70.32
2017-04-02T00:20:59.497Z,70.22
2017-04-02T00:21:03.922Z,70.32
2017-04-02T00:21:08.387Z,70.89
2017-04-02T00:21:12.692Z,70.32
2017-04-02T00:21:17.124Z,70.42
2017-04-02T00:21:21.553Z,70.32
2017-04-02T00:21:25.978Z,70.22
2017-04-02T00:21:30.166Z,70.22
2017-04-02T00:21:34.593Z,69.93
2017-04-02T00:21:39.032Z,70.13
2017-04-02T00:21:43.466Z,69.93
2017-04-02T00:21:47.891Z,70.13
2017-04-02T00:21:52.201Z,69.93
2017-04-02T00:21:56.392Z,70.03
2017-04-02T00:22:00.830Z,70.03
2017-04-02T00:22:05.136Z,70.22
2017-04-02T00:22:09.442Z,70.22
2017-04-02T00:22:13.873Z,70.32
2017-04-02T00:22:18.184Z,70.61
2017-04-02T00:22:22.494Z,70.89
2017-04-02T00:22:26.919Z,70.51
2017-04-02T00:22:31.348Z,70.61
2017-04-02T00:22:35.823Z,70.7
2017-04-02T00:22:40.130Z,71.08
2017-04-02T00:22:44.321Z,70.98
2017-04-02T00:22:48.747Z,71.08
2017-04-02T00:22:53.170Z,70.98
2017-04-02T00:22:57.601Z,70.79
2017-04-02T00:23:02.229Z,70.79
2017-04-02T00:23:06.654Z,70.89
2017-04-02T00:23:11.072Z,70.89
2017-04-02T00:23:15.503Z,70.98
2017-04-02T00:23:19.931Z,70.79
2017-04-02T00:23:24.355Z,70.79
2017-04-02T00:23:28.664Z,70.89
2017-04-02T00:23:33.091Z,70.7
2017-04-02T00:23:37.400Z,70.7
2017-04-02T00:23:41.822Z,70.79
2017-04-02T00:23:46.245Z,71.56
2017-04-02T00:23:50.442Z,70.98
2017-04-02T00:23:54.745Z,71.27
2017-04-02T00:23:59.063Z,71.08
2017-04-02T00:24:03.396Z,71.27
2017-04-02T00:24:07.704Z,71.27
2017-04-02T00:24:12.142Z,71.66
2017-04-02T00:24:16.605Z,71.46
2017-04-02T00:24:20.907Z,71.56
2017-04-02T00:24:25.208Z,71.18
2017-04-02T00:24:29.631Z,71.08
2017-04-02T00:24:33.991Z,71.27
2017-04-02T00:24:38.302Z,71.37
2017-04-02T00:24:42.723Z,71.56
2017-04-02T00:24:47.153Z,70.79
2017-04-02T00:24:51.481Z,71.08
2017-04-02T00:24:55.786Z,71.18
2017-04-02T00:25:00.209Z,71.46
2017-04-02T00:25:04.529Z,71.08
2017-04-02T00:25:08.955Z,71.18
2017-04-02T00:25:13.377Z,71.27
2017-04-02T00:25:17.803Z,71.27
2017-04-02T00:25:21.881Z,71.46
2017-04-02T00:25:26.319Z,71.27
2017-04-02T00:25:30.761Z,71.46
2017-04-02T00:25:35.063Z,71.37
2017-04-02T00:25:39.377Z,71.75
2017-04-02T00:25:43.801Z,72.23
2017-04-02T00:25:48.228Z,71.56
2017-04-02T00:25:52.539Z,71.27
2017-04-02T00:25:56.850Z,71.46
2017-04-02T00:26:01.165Z,71.46
2017-04-02T00:26:05.595Z,71.27
2017-04-02T00:26:10.020Z,71.37
2017-04-02T00:26:14.443Z,71.46
2017-04-02T00:26:18.873Z,71.46
2017-04-02T00:26:23.232Z,71.56
2017-04-02T00:26:27.429Z,71.27
2017-04-02T00:26:31.851Z,71.66
2017-04-02T00:26:36.279Z,71.27
2017-04-02T00:26:40.707Z,71.37
2017-04-02T00:26:45.129Z,71.27
2017-04-02T00:26:49.555Z,71.27
2017-04-02T00:26:54.029Z,71.27
2017-04-02T00:26:58.461Z,71.27
2017-04-02T00:27:03.040Z,71.56
2017-04-02T00:27:07.470Z,71.27
2017-04-02T00:27:11.924Z,71.75
2017-04-02T00:27:16.347Z,72.13
2017-04-02T00:27:20.775Z,72.03
2017-04-02T00:27:25.200Z,72.03
2017-04-02T00:27:29.628Z,72.13
2017-04-02T00:27:34.048Z,72.03
2017-04-02T00:27:38.470Z,71.75
2017-04-02T00:27:42.893Z,72.23
2017-04-02T00:27:47.317Z,71.75
2017-04-02T00:27:51.741Z,71.75
2017-04-02T00:27:56.047Z,71.75
2017-04-02T00:28:00.489Z,71.66
2017-04-02T00:28:04.844Z,72.03
2017-04-02T00:28:09.272Z,71.94
2017-04-02T00:28:13.747Z,71.84
2017-04-02T00:28:18.177Z,72.23
2017-04-02T00:28:22.484Z,71.94
2017-04-02T00:28:27.110Z,72.03
2017-04-02T00:28:31.417Z,71.94
2017-04-02T00:28:35.842Z,72.23
2017-04-02T00:28:40.263Z,71.56
2017-04-02T00:28:44.577Z,71.94
2017-04-02T00:28:48.881Z,71.84
2017-04-02T00:28:53.192Z,71.75
2017-04-02T00:28:57.624Z,71.66
2017-04-02T00:29:01.935Z,71.56
2017-04-02T00:29:06.365Z,71.66
2017-04-02T00:29:10.792Z,72.13
2017-04-02T00:29:15.218Z,72.13
2017-04-02T00:29:19.641Z,72.13
2017-04-02T00:29:23.946Z,72.03
2017-04-02T00:29:28.374Z,71.94
2017-04-02T00:29:32.684Z,71.94
2017-04-02T00:29:37.111Z,72.13
2017-04-02T00:29:41.416Z,72.51
2017-04-02T00:29:45.844Z,72.51
2017-04-02T00:29:50.273Z,71.94
2017-04-02T00:29:54.574Z,72.03
2017-04-02T00:29:59.004Z,72.03
2017-04-02T00:30:03.316Z,72.51
2017-04-02T00:30:07.509Z,71.84
2017-04-02T00:30:11.823Z,71.84
2017-04-02T00:30:16.134Z,72.51
2017-04-02T00:30:20.562Z,71.84
2017-04-02T00:30:24.881Z,72.03
2017-04-02T00:30:29.195Z,72.42
2017-04-02T00:30:33.626Z,71.84
2017-04-02T00:30:37.934Z,72.71
2017-04-02T00:30:42.359Z,72.32
2017-04-02T00:30:46.796Z,72.23
2017-04-02T00:30:51.109Z,72.42
2017-04-02T00:30:55.536Z,72.32
2017-04-02T00:30:59.849Z,72.42
2017-04-02T00:31:04.161Z,72.8
2017-04-02T00:31:08.594Z,72.71
2017-04-02T00:31:13.026Z,72.23
2017-04-02T00:31:17.451Z,72.51
2017-04-02T00:31:21.881Z,72.99
2017-04-02T00:31:26.325Z,73.08
2017-04-02T00:31:30.754Z,72.89
2017-04-02T00:31:35.067Z,72.99
2017-04-02T00:31:39.494Z,72.8
2017-04-02T00:31:43.806Z,73.08
2017-04-02T00:31:48.117Z,72.99
2017-04-02T00:31:52.342Z,72.99
2017-04-02T00:31:56.652Z,73.08
2017-04-02T00:32:01.081Z,72.61
2017-04-02T00:32:05.611Z,72.89
2017-04-02T00:32:09.694Z,72.51
2017-04-02T00:32:14.005Z,73.08
2017-04-02T00:32:18.429Z,73.08
2017-04-02T00:32:22.853Z,73.18
2017-04-02T00:32:27.287Z,73.66
2017-04-02T00:32:31.593Z,73.66
2017-04-02T00:32:36.016Z,74.32
2017-04-02T00:32:40.436Z,73.94
2017-04-02T00:32:44.858Z,73.75
2017-04-02T00:32:49.173Z,73.66
2017-04-02T00:32:53.477Z,74.04
2017-04-02T00:32:57.903Z,74.23
2017-04-02T00:33:02.220Z,73.66
2017-04-02T00:33:06.411Z,73.85
2017-04-02T00:33:10.836Z,74.42
2017-04-02T00:33:15.270Z,74.04
2017-04-02T00:33:19.702Z,73.37
2017-04-02T00:33:24.126Z,73.56
2017-04-02T00:33:28.451Z,73.85
2017-04-02T00:33:32.876Z,74.04
2017-04-02T00:33:37.298Z,74.61
2017-04-02T00:33:41.723Z,74.61
2017-04-02T00:33:46.034Z,74.32
2017-04-02T00:33:50.456Z,74.99
2017-04-02T00:33:54.759Z,74.99
2017-04-02T00:33:59.187Z,74.9
2017-04-02T00:34:03.494Z,74.71
2017-04-02T00:34:07.798Z,74.9
2017-04-02T00:34:12.226Z,75.18
2017-04-02T00:34:16.649Z,74.71
2017-04-02T00:34:21.081Z,74.8
2017-04-02T00:34:25.552Z,75.37
2017-04-02T00:34:29.982Z,75.18
2017-04-02T00:34:34.409Z,75.28
2017-04-02T00:34:38.719Z,74.8
2017-04-02T00:34:43.029Z,74.99
2017-04-02T00:34:47.488Z,75.37
2017-04-02T00:34:51.796Z,75.18
2017-04-02T00:34:56.103Z,75.28
2017-04-02T00:35:00.535Z,75.28
2017-04-02T00:35:04.588Z,74.9
2017-04-02T00:35:09.021Z,74.52
2017-04-02T00:35:13.445Z,74.52
2017-04-02T00:35:17.873Z,75.18
2017-04-02T00:35:22.175Z,75.28
2017-04-02T00:35:26.605Z,75.37
2017-04-02T00:35:31.033Z,75.18
2017-04-02T00:35:35.459Z,74.99
2017-04-02T00:35:39.642Z,75.66
2017-04-02T00:35:44.079Z,75.57
2017-04-02T00:35:48.546Z,75.09
2017-04-02T00:35:52.739Z,75.18
2017-04-02T00:35:57.045Z,74.99
2017-04-02T00:36:01.356Z,75.18
2017-04-02T00:36:05.971Z,75.09
2017-04-02T00:36:10.277Z,75.37
2017-04-02T00:36:14.706Z,75.66
2017-04-02T00:36:19.133Z,75.28
2017-04-02T00:36:23.440Z,75.66
2017-04-02T00:36:27.870Z,75.66
2017-04-02T00:36:32.185Z,75.66
2017-04-02T00:36:36.493Z,75.47
2017-04-02T00:36:40.918Z,75.66
2017-04-02T00:36:45.221Z,75.66
2017-04-02T00:36:49.656Z,75.76
2017-04-02T00:36:54.084Z,75.66
2017-04-02T00:36:58.275Z,75.57
2017-04-02T00:37:02.635Z,75.47
2017-04-02T00:37:06.953Z,75.47
2017-04-02T00:37:11.380Z,75.47
2017-04-02T00:37:15.802Z,75.95
2017-04-02T00:37:20.246Z,76.52
2017-04-02T00:37:24.553Z,76.14
2017-04-02T00:37:28.980Z,76.04
2017-04-02T00:37:33.284Z,76.33
2017-04-02T00:37:37.709Z,76.14
2017-04-02T00:37:42.041Z,76.42
2017-04-02T00:37:46.227Z,76.04
2017-04-02T00:37:50.535Z,76.14
2017-04-02T00:37:54.963Z,76.14
2017-04-02T00:37:59.380Z,76.04
2017-04-02T00:38:03.804Z,75.85
2017-04-02T00:38:08.224Z,75.66
2017-04-02T00:38:12.697Z,75.66
2017-04-02T00:38:17.121Z,75.47
2017-04-02T00:38:21.545Z,75.66
2017-04-02T00:38:25.974Z,75.57
2017-04-02T00:38:30.320Z,75.57
2017-04-02T00:38:34.737Z,75.47
2017-04-02T00:38:39.159Z,75.47
2017-04-02T00:38:43.468Z,75.47
2017-04-02T00:38:47.545Z,75.66
2017-04-02T00:38:51.854Z,75.28
2017-04-02T00:38:56.044Z,75.18
2017-04-02T00:39:00.480Z,75.66
2017-04-02T00:39:05.098Z,75.34
2017-04-02T00:39:09.523Z,75.28
2017-04-02T00:39:13.948Z,75.09
2017-04-02T00:39:18.378Z,75.66
2017-04-02T00:39:22.797Z,75.28
2017-04-02T00:39:27.218Z,75.43
2017-04-02T00:39:31.639Z,75.53
2017-04-02T00:39:35.871Z,75.15
2017-04-02T00:39:40.296Z,75.09
2017-04-02T00:39:44.485Z,75.47
2017-04-02T00:39:48.792Z,75.05
2017-04-02T00:39:53.217Z,75.43
2017-04-02T00:39:57.646Z,75.37
2017-04-02T00:40:02.070Z,75.37
2017-04-02T00:40:06.378Z,75.72
2017-04-02T00:40:10.684Z,75.76
2017-04-02T00:40:15.001Z,75.53
2017-04-02T00:40:19.303Z,76.29
2017-04-02T00:40:23.732Z,76.33
2017-04-02T00:40:28.157Z,76.01
2017-04-02T00:40:32.617Z,75.72
2017-04-02T00:40:36.923Z,75.76
2017-04-02T00:40:41.348Z,75.43
2017-04-02T00:40:45.536Z,76.23
2017-04-02T00:40:49.965Z,76.2
2017-04-02T00:40:54.268Z,76.2
2017-04-02T00:40:58.692Z,76.33
2017-04-02T00:41:03.135Z,75.81
2017-04-02T00:41:07.606Z,76.04
2017-04-02T00:41:12.032Z,75.91
2017-04-02T00:41:16.469Z,76.81
2017-04-02T00:41:20.923Z,76.81
2017-04-02T00:41:25.233Z,76.2
2017-04-02T00:41:29.656Z,76.29
2017-04-02T00:41:34.094Z,76.14
2017-04-02T00:41:38.402Z,76.62
2017-04-02T00:41:42.709Z,76.48
2017-04-02T00:41:47.018Z,76.42
2017-04-02T00:41:51.445Z,76.77
2017-04-02T00:41:55.800Z,77.25
2017-04-02T00:42:00.222Z,76.52
2017-04-02T00:42:04.580Z,76.86
2017-04-02T00:42:09.013Z,77.53
2017-04-02T00:42:13.482Z,77.91
2017-04-02T00:42:17.909Z,76.67
2017-04-02T00:42:22.220Z,77.28
2017-04-02T00:42:26.648Z,77.44
2017-04-02T00:42:31.076Z,77.47
2017-04-02T00:42:35.501Z,77.34
2017-04-02T00:42:39.929Z,77.19
2017-04-02T00:42:44.126Z,76.77
2017-04-02T00:42:48.549Z,77.09
2017-04-02T00:42:52.860Z,76.77
2017-04-02T00:42:57.180Z,77.15
2017-04-02T00:43:01.610Z,77.53
2017-04-02T00:43:06.033Z,77.57
2017-04-02T00:43:10.457Z,77.86
2017-04-02T00:43:14.887Z,77.62
2017-04-02T00:43:19.311Z,77.47
2017-04-02T00:43:23.733Z,77.28
2017-04-02T00:43:28.039Z,77.67
2017-04-02T00:43:32.435Z,77.86
2017-04-02T00:43:36.860Z,78.01
2017-04-02T00:43:41.166Z,77.82
2017-04-02T00:43:45.585Z,77.62
2017-04-02T00:43:50.010Z,77.62
2017-04-02T00:43:54.322Z,77.67
2017-04-02T00:43:58.744Z,77.57
2017-04-02T00:44:03.131Z,77.62
2017-04-02T00:44:07.441Z,77.53
2017-04-02T00:44:11.792Z,77.62
2017-04-02T00:44:16.217Z,78.2
2017-04-02T00:44:20.680Z,78.58
2017-04-02T00:44:25.103Z,78.01
2017-04-02T00:44:29.402Z,77.86
2017-04-02T00:44:33.828Z,77.86
2017-04-02T00:44:38.138Z,77.38
2017-04-02T00:44:42.476Z,77.76
2017-04-02T00:44:46.906Z,77.44
2017-04-02T00:44:51.212Z,77.76
2017-04-02T00:44:55.406Z,77.72
2017-04-02T00:44:59.838Z,77.57
2017-04-02T00:45:04.031Z,77.47
2017-04-02T00:45:08.470Z,77.95
2017-04-02T00:45:12.903Z,78.05
2017-04-02T00:45:17.329Z,77.57
2017-04-02T00:45:21.758Z,77.53
2017-04-02T00:45:26.177Z,77.76
2017-04-02T00:45:30.369Z,78.23
2017-04-02T00:45:34.801Z,78.05
2017-04-02T00:45:38.995Z,78.1
2017-04-02T00:45:43.182Z,77.86
2017-04-02T00:45:47.609Z,78.77
2017-04-02T00:45:51.915Z,78.43
2017-04-02T00:45:56.338Z,78.62
2017-04-02T00:46:00.644Z,78.43
2017-04-02T00:46:05.006Z,78.3
2017-04-02T00:46:09.445Z,78.3
2017-04-02T00:46:13.915Z,78.05
2017-04-02T00:46:18.341Z,78.52
2017-04-02T00:46:22.786Z,78.86
2017-04-02T00:46:26.989Z,78.91
2017-04-02T00:46:31.428Z,78.49
2017-04-02T00:46:35.852Z,78.39
2017-04-02T00:46:40.277Z,78.52
2017-04-02T00:46:44.587Z,78.39
2017-04-02T00:46:49.059Z,79.06
2017-04-02T00:46:53.246Z,78.39
2017-04-02T00:46:57.670Z,78.1
2017-04-02T00:47:02.194Z,78.49
2017-04-02T00:47:06.508Z,78.49
2017-04-02T00:47:10.935Z,78.3
2017-04-02T00:47:15.240Z,79.06
2017-04-02T00:47:19.662Z,79.06
2017-04-02T00:47:24.107Z,79.63
2017-04-02T00:47:28.535Z,79.15
2017-04-02T00:47:32.960Z,79.19
2017-04-02T00:47:37.382Z,79.25
2017-04-02T00:47:41.699Z,79.63
2017-04-02T00:47:46.121Z,79.35
2017-04-02T00:47:50.544Z,79.63
2017-04-02T00:47:54.984Z,79.91
2017-04-02T00:47:59.295Z,79.53
2017-04-02T00:48:03.604Z,79.35
2017-04-02T00:48:07.797Z,79.06
2017-04-02T00:48:12.255Z,79.35
2017-04-02T00:48:16.566Z,79.25
2017-04-02T00:48:20.988Z,79.15
2017-04-02T00:48:25.413Z,79.35
2017-04-02T00:48:29.969Z,79.15
2017-04-02T00:48:34.275Z,80.2
2017-04-02T00:48:38.694Z,79.72
2017-04-02T00:48:43.124Z,79.63
2017-04-02T00:48:47.475Z,79.82
2017-04-02T00:48:51.895Z,79.82
2017-04-02T00:48:56.201Z,79.82
2017-04-02T00:49:00.510Z,79.91
2017-04-02T00:49:04.857Z,79.53
2017-04-02T00:49:09.276Z,79.82
2017-04-02T00:49:13.698Z,79.82
2017-04-02T00:49:18.131Z,79.82
2017-04-02T00:49:22.550Z,79.82
2017-04-02T00:49:26.988Z,79.82
2017-04-02T00:49:31.458Z,79.82
2017-04-02T00:49:35.649Z,79.82
2017-04-02T00:49:39.836Z,79.53
2017-04-02T00:49:44.263Z,79.91
2017-04-02T00:49:48.612Z,79.53
2017-04-02T00:49:52.802Z,79.44
2017-04-02T00:49:56.989Z,79.48
2017-04-02T00:50:01.227Z,79.06
2017-04-02T00:50:05.836Z,79.35
2017-04-02T00:50:10.024Z,79.25
2017-04-02T00:50:14.456Z,79.35
2017-04-02T00:50:18.771Z,79.15
2017-04-02T00:50:23.202Z,79.15
2017-04-02T00:50:27.511Z,79.25
2017-04-02T00:50:31.943Z,79.15
2017-04-02T00:50:36.250Z,79.44
2017-04-02T00:50:40.559Z,79.53
2017-04-02T00:50:44.983Z,79.53
2017-04-02T00:50:49.296Z,79.72
2017-04-02T00:50:53.722Z,80.39
2017-04-02T00:50:58.144Z,80.2
2017-04-02T00:51:02.468Z,79.82
2017-04-02T00:51:06.899Z,80.3
2017-04-02T00:51:11.324Z,79.91
2017-04-02T00:51:15.633Z,79.72
2017-04-02T00:51:20.069Z,80.96
2017-04-02T00:51:24.385Z,80.49
2017-04-02T00:51:28.460Z,80.49
2017-04-02T00:51:32.895Z,80.39
2017-04-02T00:51:37.322Z,80.39
2017-04-02T00:51:41.748Z,80.01
2017-04-02T00:51:46.174Z,80.11
2017-04-02T00:51:50.601Z,79.91
2017-04-02T00:51:55.071Z,79.72
2017-04-02T00:51:59.263Z,79.91
2017-04-02T00:52:03.565Z,80.01
2017-04-02T00:52:07.753Z,79.72
2017-04-02T00:52:12.181Z,79.72
2017-04-02T00:52:16.367Z,79.91
2017-04-02T00:52:20.789Z,80.01
2017-04-02T00:52:25.226Z,79.82
2017-04-02T00:52:29.656Z,80.2
2017-04-02T00:52:34.080Z,80.01
2017-04-02T00:52:38.505Z,79.82
2017-04-02T00:52:42.943Z,79.63
2017-04-02T00:52:47.258Z,79.91
2017-04-02T00:52:51.685Z,80.11
2017-04-02T00:52:55.999Z,80.01
2017-04-02T00:53:00.351Z,80.49
2017-04-02T00:53:04.978Z,81.25
2017-04-02T00:53:09.405Z,80.87
2017-04-02T00:53:13.713Z,80.87
2017-04-02T00:53:18.022Z,80.87
2017-04-02T00:53:22.444Z,80.3
2017-04-02T00:53:26.745Z,80.58
2017-04-02T00:53:31.052Z,80.11
2017-04-02T00:53:35.480Z,81.15
2017-04-02T00:53:39.899Z,81.35
2017-04-02T00:53:44.332Z,81.25
2017-04-02T00:53:48.757Z,82.11
2017-04-02T00:53:53.173Z,81.92
2017-04-02T00:53:57.362Z,81.63
2017-04-02T00:54:01.721Z,81.25
2017-04-02T00:54:06.024Z,81.25
2017-04-02T00:54:10.453Z,81.15
2017-04-02T00:54:14.873Z,81.25
2017-04-02T00:54:19.185Z,80.96
2017-04-02T00:54:23.487Z,81.35
2017-04-02T00:54:27.915Z,81.92
2017-04-02T00:54:32.346Z,81.92
2017-04-02T00:54:36.780Z,81.44
2017-04-02T00:54:40.980Z,81.54
2017-04-02T00:54:45.399Z,81.73
2017-04-02T00:54:49.703Z,82.78
2017-04-02T00:54:54.125Z,82.49
2017-04-02T00:54:58.331Z,82.2
2017-04-02T00:55:02.639Z,82.01
2017-04-02T00:55:06.946Z,81.82
2017-04-02T00:55:11.381Z,81.54
2017-04-02T00:55:15.809Z,81.44
2017-04-02T00:55:20.239Z,81.54
2017-04-02T00:55:24.553Z,81.63
2017-04-02T00:55:28.869Z,81.25
2017-04-02T00:55:33.292Z,81.63
2017-04-02T00:55:37.722Z,81.25
2017-04-02T00:55:41.802Z,81.73
2017-04-02T00:55:46.225Z,82.11
2017-04-02T00:55:50.530Z,82.59
2017-04-02T00:55:54.720Z,82.87
2017-04-02T00:55:59.033Z,81.92
2017-04-02T00:56:03.489Z,82.01
2017-04-02T00:56:07.676Z,81.92
2017-04-02T00:56:11.982Z,81.44
2017-04-02T00:56:16.418Z,81.63
2017-04-02T00:56:20.858Z,81.54
2017-04-02T00:56:25.283Z,81.44
2017-04-02T00:56:29.704Z,81.15
2017-04-02T00:56:34.133Z,81.35